sensor_id;sensor_type;location;lat;lon;timestamp;temperature;humidity
80176;DHT22;69501;42.124;24.722;2023-05-19T00:00:55;16.70;57.10
80176;DHT22;69501;42.124;24.722;2023-05-19T00:03:22;16.70;57.00
80176;DHT22;69501;42.124;24.722;2023-05-19T00:05:48;16.80;56.60
80176;DHT22;69501;42.124;24.722;2023-05-19T00:08:18;16.80;56.80
80176;DHT22;69501;42.124;24.722;2023-05-19T00:10:44;16.80;56.70
80176;DHT22;69501;42.124;24.722;2023-05-19T00:13:09;16.70;57.10
80176;DHT22;69501;42.124;24.722;2023-05-19T00:15:35;16.70;57.10
80176;DHT22;69501;42.124;24.722;2023-05-19T00:18:01;16.80;56.90
80176;DHT22;69501;42.124;24.722;2023-05-19T00:20:27;16.80;56.80
80176;DHT22;69501;42.124;24.722;2023-05-19T00:22:52;16.80;57.00
80176;DHT22;69501;42.124;24.722;2023-05-19T00:25:18;16.70;56.70
80176;DHT22;69501;42.124;24.722;2023-05-19T00:27:44;16.70;56.90
80176;DHT22;69501;42.124;24.722;2023-05-19T00:30:09;16.70;57.00
80176;DHT22;69501;42.124;24.722;2023-05-19T00:32:35;16.80;57.00
80176;DHT22;69501;42.124;24.722;2023-05-19T00:35:01;16.70;56.90
80176;DHT22;69501;42.124;24.722;2023-05-19T00:37:26;16.70;57.00
80176;DHT22;69501;42.124;24.722;2023-05-19T00:39:52;16.80;56.50
80176;DHT22;69501;42.124;24.722;2023-05-19T00:42:19;16.80;56.40
80176;DHT22;69501;42.124;24.722;2023-05-19T00:44:45;16.80;56.10
80176;DHT22;69501;42.124;24.722;2023-05-19T00:47:11;16.80;56.30
80176;DHT22;69501;42.124;24.722;2023-05-19T00:49:36;16.80;56.20
80176;DHT22;69501;42.124;24.722;2023-05-19T00:52:04;16.80;56.10
80176;DHT22;69501;42.124;24.722;2023-05-19T00:54:32;16.80;56.00
80176;DHT22;69501;42.124;24.722;2023-05-19T00:56:58;17.00;55.70
80176;DHT22;69501;42.124;24.722;2023-05-19T00:59:24;17.00;55.60
80176;DHT22;69501;42.124;24.722;2023-05-19T01:01:50;16.90;55.60
80176;DHT22;69501;42.124;24.722;2023-05-19T01:04:18;16.80;55.60
80176;DHT22;69501;42.124;24.722;2023-05-19T01:06:46;16.80;55.70
80176;DHT22;69501;42.124;24.722;2023-05-19T01:09:12;16.80;55.90
80176;DHT22;69501;42.124;24.722;2023-05-19T01:11:38;16.90;55.60
80176;DHT22;69501;42.124;24.722;2023-05-19T01:14:03;16.90;55.50
80176;DHT22;69501;42.124;24.722;2023-05-19T01:16:38;17.00;55.50
80176;DHT22;69501;42.124;24.722;2023-05-19T01:22:13;16.80;55.80
80176;DHT22;69501;42.124;24.722;2023-05-19T01:30:48;16.80;55.80
80176;DHT22;69501;42.124;24.722;2023-05-19T01:33:16;16.70;55.80
80176;DHT22;69501;42.124;24.722;2023-05-19T01:35:44;16.70;55.70
80176;DHT22;69501;42.124;24.722;2023-05-19T01:38:11;16.70;55.80
80176;DHT22;69501;42.124;24.722;2023-05-19T01:40:40;16.70;56.00
80176;DHT22;69501;42.124;24.722;2023-05-19T01:43:08;16.70;56.00
80176;DHT22;69501;42.124;24.722;2023-05-19T01:45:34;16.70;55.70
80176;DHT22;69501;42.124;24.722;2023-05-19T01:48:03;16.70;55.70
80176;DHT22;69501;42.124;24.722;2023-05-19T01:50:29;16.80;55.80
80176;DHT22;69501;42.124;24.722;2023-05-19T01:52:56;16.70;55.90
80176;DHT22;69501;42.124;24.722;2023-05-19T01:55:22;16.70;56.00
80176;DHT22;69501;42.124;24.722;2023-05-19T01:58:36;16.60;55.90
80176;DHT22;69501;42.124;24.722;2023-05-19T02:01:20;16.70;55.90
80176;DHT22;69501;42.124;24.722;2023-05-19T02:07:12;16.70;56.00
80176;DHT22;69501;42.124;24.722;2023-05-19T02:12:28;16.70;55.90
80176;DHT22;69501;42.124;24.722;2023-05-19T02:15:16;16.70;55.80
80176;DHT22;69501;42.124;24.722;2023-05-19T02:17:46;16.70;55.90
80176;DHT22;69501;42.124;24.722;2023-05-19T02:20:15;16.60;55.90
80176;DHT22;69501;42.124;24.722;2023-05-19T02:22:41;16.60;56.00
80176;DHT22;69501;42.124;24.722;2023-05-19T02:25:07;16.60;56.00
80176;DHT22;69501;42.124;24.722;2023-05-19T02:27:37;16.60;56.00
80176;DHT22;69501;42.124;24.722;2023-05-19T02:30:04;16.70;55.90
80176;DHT22;69501;42.124;24.722;2023-05-19T02:32:31;16.70;55.90
80176;DHT22;69501;42.124;24.722;2023-05-19T02:34:56;16.70;55.70
80176;DHT22;69501;42.124;24.722;2023-05-19T02:37:22;16.70;55.50
80176;DHT22;69501;42.124;24.722;2023-05-19T02:39:49;16.80;56.10
80176;DHT22;69501;42.124;24.722;2023-05-19T02:42:14;16.80;55.60
80176;DHT22;69501;42.124;24.722;2023-05-19T02:44:42;16.70;55.70
80176;DHT22;69501;42.124;24.722;2023-05-19T02:47:08;16.70;55.50
80176;DHT22;69501;42.124;24.722;2023-05-19T02:49:34;16.60;55.60
80176;DHT22;69501;42.124;24.722;2023-05-19T02:52:01;16.60;56.00
80176;DHT22;69501;42.124;24.722;2023-05-19T02:54:31;16.70;55.90
80176;DHT22;69501;42.124;24.722;2023-05-19T02:56:57;16.70;56.00
80176;DHT22;69501;42.124;24.722;2023-05-19T02:59:23;16.60;56.10
80176;DHT22;69501;42.124;24.722;2023-05-19T03:01:51;16.60;55.90
80176;DHT22;69501;42.124;24.722;2023-05-19T03:04:17;16.60;56.10
80176;DHT22;69501;42.124;24.722;2023-05-19T03:06:45;16.60;56.40
80176;DHT22;69501;42.124;24.722;2023-05-19T03:09:11;16.60;56.40
80176;DHT22;69501;42.124;24.722;2023-05-19T03:11:38;16.70;56.30
80176;DHT22;69501;42.124;24.722;2023-05-19T03:14:04;16.70;56.10
80176;DHT22;69501;42.124;24.722;2023-05-19T03:16:29;16.70;56.10
80176;DHT22;69501;42.124;24.722;2023-05-19T03:18:56;16.70;56.00
80176;DHT22;69501;42.124;24.722;2023-05-19T03:21:21;16.60;56.40
80176;DHT22;69501;42.124;24.722;2023-05-19T03:23:47;16.60;56.60
80176;DHT22;69501;42.124;24.722;2023-05-19T03:26:13;16.60;56.70
80176;DHT22;69501;42.124;24.722;2023-05-19T03:28:38;16.50;57.00
80176;DHT22;69501;42.124;24.722;2023-05-19T03:31:04;16.60;57.10
80176;DHT22;69501;42.124;24.722;2023-05-19T03:33:30;16.50;57.10
80176;DHT22;69501;42.124;24.722;2023-05-19T03:35:56;16.60;57.00
80176;DHT22;69501;42.124;24.722;2023-05-19T03:38:21;16.60;57.00
80176;DHT22;69501;42.124;24.722;2023-05-19T03:40:47;16.60;57.10
80176;DHT22;69501;42.124;24.722;2023-05-19T03:43:15;16.60;56.80
80176;DHT22;69501;42.124;24.722;2023-05-19T03:45:41;16.60;56.60
80176;DHT22;69501;42.124;24.722;2023-05-19T03:48:07;16.60;56.70
80176;DHT22;69501;42.124;24.722;2023-05-19T03:50:32;16.60;56.90
80176;DHT22;69501;42.124;24.722;2023-05-19T03:52:59;16.50;57.10
80176;DHT22;69501;42.124;24.722;2023-05-19T03:55:25;16.50;57.20
80176;DHT22;69501;42.124;24.722;2023-05-19T03:57:51;16.50;56.90
80176;DHT22;69501;42.124;24.722;2023-05-19T04:00:20;16.60;56.90
80176;DHT22;69501;42.124;24.722;2023-05-19T04:02:46;16.60;57.10
80176;DHT22;69501;42.124;24.722;2023-05-19T04:05:11;16.60;56.90
80176;DHT22;69501;42.124;24.722;2023-05-19T04:07:37;16.60;56.90
80176;DHT22;69501;42.124;24.722;2023-05-19T04:10:06;16.70;56.70
80176;DHT22;69501;42.124;24.722;2023-05-19T04:12:31;16.70;56.70
80176;DHT22;69501;42.124;24.722;2023-05-19T04:14:58;16.60;57.00
80176;DHT22;69501;42.124;24.722;2023-05-19T04:17:24;16.70;58.10
80176;DHT22;69501;42.124;24.722;2023-05-19T04:19:54;16.70;57.10
80176;DHT22;69501;42.124;24.722;2023-05-19T04:22:19;16.70;57.10
80176;DHT22;69501;42.124;24.722;2023-05-19T04:24:45;16.70;57.00
80176;DHT22;69501;42.124;24.722;2023-05-19T04:27:12;16.70;57.00
80176;DHT22;69501;42.124;24.722;2023-05-19T04:29:38;16.80;57.00
80176;DHT22;69501;42.124;24.722;2023-05-19T04:32:05;16.80;57.00
80176;DHT22;69501;42.124;24.722;2023-05-19T04:34:31;16.80;56.60
80176;DHT22;69501;42.124;24.722;2023-05-19T04:36:58;16.80;56.80
80176;DHT22;69501;42.124;24.722;2023-05-19T04:39:23;16.90;56.80
80176;DHT22;69501;42.124;24.722;2023-05-19T04:41:50;16.90;56.50
80176;DHT22;69501;42.124;24.722;2023-05-19T04:44:15;17.00;57.60
80176;DHT22;69501;42.124;24.722;2023-05-19T04:46:42;17.10;56.80
80176;DHT22;69501;42.124;24.722;2023-05-19T04:49:09;17.20;56.00
80176;DHT22;69501;42.124;24.722;2023-05-19T04:51:37;17.30;59.50
80176;DHT22;69501;42.124;24.722;2023-05-19T04:54:08;17.40;56.20
80176;DHT22;69501;42.124;24.722;2023-05-19T04:56:35;17.50;55.70
80176;DHT22;69501;42.124;24.722;2023-05-19T04:59:00;17.50;55.70
80176;DHT22;69501;42.124;24.722;2023-05-19T05:01:26;17.60;54.80
80176;DHT22;69501;42.124;24.722;2023-05-19T05:03:53;17.70;55.80
80176;DHT22;69501;42.124;24.722;2023-05-19T05:06:20;17.90;55.40
80176;DHT22;69501;42.124;24.722;2023-05-19T05:08:47;17.90;54.30
80176;DHT22;69501;42.124;24.722;2023-05-19T05:11:13;18.00;54.70
80176;DHT22;69501;42.124;24.722;2023-05-19T05:13:39;18.00;54.00
80176;DHT22;69501;42.124;24.722;2023-05-19T05:16:05;18.20;53.90
80176;DHT22;69501;42.124;24.722;2023-05-19T05:18:33;18.20;53.60
80176;DHT22;69501;42.124;24.722;2023-05-19T05:20:59;18.20;53.90
80176;DHT22;69501;42.124;24.722;2023-05-19T05:23:25;18.30;53.30
80176;DHT22;69501;42.124;24.722;2023-05-19T05:25:51;18.30;53.50
80176;DHT22;69501;42.124;24.722;2023-05-19T05:28:17;18.30;54.00
80176;DHT22;69501;42.124;24.722;2023-05-19T05:30:43;18.40;53.20
80176;DHT22;69501;42.124;24.722;2023-05-19T05:33:09;18.60;52.30
80176;DHT22;69501;42.124;24.722;2023-05-19T05:35:36;18.60;52.80
80176;DHT22;69501;42.124;24.722;2023-05-19T05:38:02;18.60;52.80
80176;DHT22;69501;42.124;24.722;2023-05-19T05:40:28;18.40;53.00
80176;DHT22;69501;42.124;24.722;2023-05-19T05:42:53;18.40;53.00
80176;DHT22;69501;42.124;24.722;2023-05-19T05:45:24;18.50;52.70
80176;DHT22;69501;42.124;24.722;2023-05-19T05:47:50;18.60;52.80
80176;DHT22;69501;42.124;24.722;2023-05-19T05:50:17;18.70;53.10
80176;DHT22;69501;42.124;24.722;2023-05-19T05:52:46;18.60;52.50
80176;DHT22;69501;42.124;24.722;2023-05-19T05:55:13;18.60;53.00
80176;DHT22;69501;42.124;24.722;2023-05-19T05:57:39;18.60;52.90
80176;DHT22;69501;42.124;24.722;2023-05-19T06:00:08;18.70;52.20
80176;DHT22;69501;42.124;24.722;2023-05-19T06:02:43;18.70;52.80
80176;DHT22;69501;42.124;24.722;2023-05-19T06:05:13;18.80;52.90
80176;DHT22;69501;42.124;24.722;2023-05-19T06:07:39;18.90;52.70
80176;DHT22;69501;42.124;24.722;2023-05-19T06:10:06;18.90;52.60
80176;DHT22;69501;42.124;24.722;2023-05-19T06:12:33;19.00;52.50
80176;DHT22;69501;42.124;24.722;2023-05-19T06:15:00;19.10;53.40
80176;DHT22;69501;42.124;24.722;2023-05-19T06:17:26;19.10;52.50
80176;DHT22;69501;42.124;24.722;2023-05-19T06:19:54;19.10;52.60
80176;DHT22;69501;42.124;24.722;2023-05-19T06:22:20;19.10;52.20
80176;DHT22;69501;42.124;24.722;2023-05-19T06:24:45;19.10;52.10
80176;DHT22;69501;42.124;24.722;2023-05-19T06:27:11;19.10;52.20
80176;DHT22;69501;42.124;24.722;2023-05-19T06:29:37;19.10;53.10
80176;DHT22;69501;42.124;24.722;2023-05-19T06:32:02;19.10;52.90
80176;DHT22;69501;42.124;24.722;2023-05-19T06:34:28;19.10;54.10
80176;DHT22;69501;42.124;24.722;2023-05-19T06:36:54;19.10;52.70
80176;DHT22;69501;42.124;24.722;2023-05-19T06:39:19;19.10;52.70
80176;DHT22;69501;42.124;24.722;2023-05-19T06:41:49;19.10;52.90
80176;DHT22;69501;42.124;24.722;2023-05-19T06:44:15;19.10;53.30
80176;DHT22;69501;42.124;24.722;2023-05-19T06:46:40;19.10;54.00
80176;DHT22;69501;42.124;24.722;2023-05-19T06:49:06;19.10;52.60
80176;DHT22;69501;42.124;24.722;2023-05-19T06:51:32;19.20;52.60
80176;DHT22;69501;42.124;24.722;2023-05-19T06:53:57;19.20;52.80
80176;DHT22;69501;42.124;24.722;2023-05-19T06:56:23;19.30;53.00
80176;DHT22;69501;42.124;24.722;2023-05-19T06:58:49;19.30;53.20
80176;DHT22;69501;42.124;24.722;2023-05-19T07:01:14;19.40;53.00
80176;DHT22;69501;42.124;24.722;2023-05-19T07:03:40;19.50;52.30
80176;DHT22;69501;42.124;24.722;2023-05-19T07:06:06;19.50;51.70
80176;DHT22;69501;42.124;24.722;2023-05-19T07:08:34;19.50;51.30
80176;DHT22;69501;42.124;24.722;2023-05-19T07:11:01;19.60;52.10
80176;DHT22;69501;42.124;24.722;2023-05-19T07:13:27;19.60;52.50
80176;DHT22;69501;42.124;24.722;2023-05-19T07:16:00;19.70;51.50
80176;DHT22;69501;42.124;24.722;2023-05-19T07:18:26;19.80;51.90
80176;DHT22;69501;42.124;24.722;2023-05-19T07:20:52;19.70;52.10
80176;DHT22;69501;42.124;24.722;2023-05-19T07:23:18;19.70;52.70
80176;DHT22;69501;42.124;24.722;2023-05-19T07:26:01;19.80;53.30
80176;DHT22;69501;42.124;24.722;2023-05-19T07:28:27;19.90;52.50
80176;DHT22;69501;42.124;24.722;2023-05-19T07:30:53;19.90;52.40
80176;DHT22;69501;42.124;24.722;2023-05-19T07:33:18;19.90;51.70
80176;DHT22;69501;42.124;24.722;2023-05-19T07:35:44;20.00;51.50
80176;DHT22;69501;42.124;24.722;2023-05-19T07:38:13;20.20;51.20
80176;DHT22;69501;42.124;24.722;2023-05-19T07:40:41;20.30;51.50
80176;DHT22;69501;42.124;24.722;2023-05-19T07:43:07;20.30;50.60
80176;DHT22;69501;42.124;24.722;2023-05-19T07:45:38;20.50;50.50
80176;DHT22;69501;42.124;24.722;2023-05-19T07:48:04;20.60;50.80
80176;DHT22;69501;42.124;24.722;2023-05-19T07:50:30;20.80;50.30
80176;DHT22;69501;42.124;24.722;2023-05-19T07:52:56;20.90;49.60
80176;DHT22;69501;42.124;24.722;2023-05-19T07:55:22;20.80;49.00
80176;DHT22;69501;42.124;24.722;2023-05-19T07:57:48;20.80;48.30
80176;DHT22;69501;42.124;24.722;2023-05-19T08:00:15;20.80;48.70
80176;DHT22;69501;42.124;24.722;2023-05-19T08:02:42;20.90;49.20
80176;DHT22;69501;42.124;24.722;2023-05-19T08:05:08;20.90;49.00
80176;DHT22;69501;42.124;24.722;2023-05-19T08:07:37;20.90;48.90
80176;DHT22;69501;42.124;24.722;2023-05-19T08:10:05;21.00;49.80
80176;DHT22;69501;42.124;24.722;2023-05-19T08:12:31;21.10;50.30
80176;DHT22;69501;42.124;24.722;2023-05-19T08:14:57;21.10;49.30
80176;DHT22;69501;42.124;24.722;2023-05-19T08:17:22;21.30;48.50
80176;DHT22;69501;42.124;24.722;2023-05-19T08:19:48;21.30;48.00
80176;DHT22;69501;42.124;24.722;2023-05-19T08:22:14;21.30;47.10
80176;DHT22;69501;42.124;24.722;2023-05-19T08:24:40;21.30;47.50
80176;DHT22;69501;42.124;24.722;2023-05-19T08:27:09;21.30;47.50
80176;DHT22;69501;42.124;24.722;2023-05-19T08:29:35;21.30;48.10
80176;DHT22;69501;42.124;24.722;2023-05-19T08:32:02;21.40;48.10
80176;DHT22;69501;42.124;24.722;2023-05-19T08:34:30;21.40;48.40
80176;DHT22;69501;42.124;24.722;2023-05-19T08:36:57;21.40;48.40
80176;DHT22;69501;42.124;24.722;2023-05-19T08:39:24;21.40;48.10
80176;DHT22;69501;42.124;24.722;2023-05-19T08:41:52;21.50;48.00
80176;DHT22;69501;42.124;24.722;2023-05-19T08:44:19;21.60;48.10
80176;DHT22;69501;42.124;24.722;2023-05-19T08:46:46;21.70;48.40
80176;DHT22;69501;42.124;24.722;2023-05-19T08:49:15;21.70;47.40
80176;DHT22;69501;42.124;24.722;2023-05-19T08:54:24;22.00;47.10
80176;DHT22;69501;42.124;24.722;2023-05-19T08:56:50;22.00;45.70
80176;DHT22;69501;42.124;24.722;2023-05-19T08:59:28;22.10;45.10
80176;DHT22;69501;42.124;24.722;2023-05-19T09:02:00;22.10;44.30
80176;DHT22;69501;42.124;24.722;2023-05-19T09:04:26;22.10;44.40
80176;DHT22;69501;42.124;24.722;2023-05-19T09:06:52;22.20;44.80
80176;DHT22;69501;42.124;24.722;2023-05-19T09:09:18;22.30;44.20
80176;DHT22;69501;42.124;24.722;2023-05-19T09:11:47;22.30;43.40
80176;DHT22;69501;42.124;24.722;2023-05-19T09:14:13;22.30;42.90
80176;DHT22;69501;42.124;24.722;2023-05-19T09:16:39;22.50;43.00
80176;DHT22;69501;42.124;24.722;2023-05-19T09:19:05;22.60;42.80
80176;DHT22;69501;42.124;24.722;2023-05-19T09:21:37;22.70;42.30
80176;DHT22;69501;42.124;24.722;2023-05-19T09:24:06;22.80;41.80
80176;DHT22;69501;42.124;24.722;2023-05-19T09:26:40;22.90;41.30
80176;DHT22;69501;42.124;24.722;2023-05-19T09:29:24;22.90;40.40
80176;DHT22;69501;42.124;24.722;2023-05-19T09:31:54;22.90;41.30
80176;DHT22;69501;42.124;24.722;2023-05-19T09:34:25;23.00;41.90
80176;DHT22;69501;42.124;24.722;2023-05-19T09:36:52;23.00;41.00
80176;DHT22;69501;42.124;24.722;2023-05-19T09:39:19;23.10;41.50
80176;DHT22;69501;42.124;24.722;2023-05-19T09:41:46;23.20;40.80
80176;DHT22;69501;42.124;24.722;2023-05-19T09:44:22;23.20;41.20
80176;DHT22;69501;42.124;24.722;2023-05-19T09:46:51;23.40;41.30
80176;DHT22;69501;42.124;24.722;2023-05-19T09:49:19;23.50;41.20
80176;DHT22;69501;42.124;24.722;2023-05-19T09:51:45;23.60;41.00
80176;DHT22;69501;42.124;24.722;2023-05-19T09:54:20;23.70;39.90
80176;DHT22;69501;42.124;24.722;2023-05-19T09:57:00;23.80;39.30
80176;DHT22;69501;42.124;24.722;2023-05-19T09:59:27;23.80;39.00
80176;DHT22;69501;42.124;24.722;2023-05-19T10:01:57;23.80;39.00
80176;DHT22;69501;42.124;24.722;2023-05-19T10:04:26;23.80;38.90
80176;DHT22;69501;42.124;24.722;2023-05-19T10:06:56;23.80;38.60
80176;DHT22;69501;42.124;24.722;2023-05-19T10:09:27;23.80;38.60
80176;DHT22;69501;42.124;24.722;2023-05-19T10:11:54;23.70;38.60
80176;DHT22;69501;42.124;24.722;2023-05-19T10:14:22;23.70;38.90
80176;DHT22;69501;42.124;24.722;2023-05-19T10:16:55;23.70;38.60
80176;DHT22;69501;42.124;24.722;2023-05-19T10:19:22;23.70;39.00
80176;DHT22;69501;42.124;24.722;2023-05-19T10:21:49;23.60;39.30
80176;DHT22;69501;42.124;24.722;2023-05-19T10:24:15;23.50;39.40
80176;DHT22;69501;42.124;24.722;2023-05-19T10:26:44;23.50;39.40
80176;DHT22;69501;42.124;24.722;2023-05-19T10:29:16;23.50;39.50
80176;DHT22;69501;42.124;24.722;2023-05-19T10:31:45;23.50;39.60
80176;DHT22;69501;42.124;24.722;2023-05-19T10:37:01;23.50;40.30
80176;DHT22;69501;42.124;24.722;2023-05-19T10:39:33;23.60;40.80
80176;DHT22;69501;42.124;24.722;2023-05-19T10:47:09;24.20;39.90
80176;DHT22;69501;42.124;24.722;2023-05-19T10:49:36;24.40;39.40
80176;DHT22;69501;42.124;24.722;2023-05-19T10:52:18;24.70;38.90
80176;DHT22;69501;42.124;24.722;2023-05-19T10:54:44;24.90;38.00
80176;DHT22;69501;42.124;24.722;2023-05-19T10:57:23;24.90;37.30
80176;DHT22;69501;42.124;24.722;2023-05-19T10:59:50;24.90;37.40
80176;DHT22;69501;42.124;24.722;2023-05-19T11:02:38;24.90;37.50
80176;DHT22;69501;42.124;24.722;2023-05-19T11:05:14;24.90;37.60
80176;DHT22;69501;42.124;24.722;2023-05-19T11:08:04;24.90;37.20
80176;DHT22;69501;42.124;24.722;2023-05-19T11:10:31;24.90;37.30
80176;DHT22;69501;42.124;24.722;2023-05-19T11:12:56;24.90;37.50
80176;DHT22;69501;42.124;24.722;2023-05-19T11:15:25;24.90;37.70
80176;DHT22;69501;42.124;24.722;2023-05-19T11:17:52;24.90;37.30
80176;DHT22;69501;42.124;24.722;2023-05-19T11:20:23;24.70;35.50
80176;DHT22;69501;42.124;24.722;2023-05-19T11:25:47;24.10;36.90
80176;DHT22;69501;42.124;24.722;2023-05-19T11:28:21;23.80;37.40
80176;DHT22;69501;42.124;24.722;2023-05-19T11:30:55;23.30;38.20
80176;DHT22;69501;42.124;24.722;2023-05-19T11:33:24;23.20;39.70
80176;DHT22;69501;42.124;24.722;2023-05-19T11:35:54;23.30;39.70
80176;DHT22;69501;42.124;24.722;2023-05-19T11:38:26;23.40;39.80
80176;DHT22;69501;42.124;24.722;2023-05-19T11:40:53;23.60;39.10
80176;DHT22;69501;42.124;24.722;2023-05-19T11:43:22;23.70;38.60
80176;DHT22;69501;42.124;24.722;2023-05-19T11:45:48;23.90;38.20
80176;DHT22;69501;42.124;24.722;2023-05-19T11:48:14;24.00;38.60
80176;DHT22;69501;42.124;24.722;2023-05-19T11:50:40;24.10;37.80
80176;DHT22;69501;42.124;24.722;2023-05-19T11:53:10;24.20;37.30
80176;DHT22;69501;42.124;24.722;2023-05-19T11:55:41;24.30;36.90
80176;DHT22;69501;42.124;24.722;2023-05-19T11:58:08;24.50;36.70
80176;DHT22;69501;42.124;24.722;2023-05-19T12:00:36;24.70;36.90
80176;DHT22;69501;42.124;24.722;2023-05-19T12:03:03;24.90;36.90
80176;DHT22;69501;42.124;24.722;2023-05-19T12:05:30;25.20;36.80
80176;DHT22;69501;42.124;24.722;2023-05-19T12:07:56;25.40;35.30
80176;DHT22;69501;42.124;24.722;2023-05-19T12:10:26;25.70;35.20
80176;DHT22;69501;42.124;24.722;2023-05-19T12:12:56;25.90;34.60
80176;DHT22;69501;42.124;24.722;2023-05-19T12:15:23;26.20;34.40
80176;DHT22;69501;42.124;24.722;2023-05-19T12:18:00;26.40;33.90
80176;DHT22;69501;42.124;24.722;2023-05-19T12:20:27;26.70;32.40
80176;DHT22;69501;42.124;24.722;2023-05-19T12:22:57;26.70;31.90
80176;DHT22;69501;42.124;24.722;2023-05-19T12:25:24;26.50;32.00
80176;DHT22;69501;42.124;24.722;2023-05-19T12:27:50;26.40;32.50
80176;DHT22;69501;42.124;24.722;2023-05-19T12:30:27;26.40;32.90
80176;DHT22;69501;42.124;24.722;2023-05-19T12:32:56;26.50;32.00
80176;DHT22;69501;42.124;24.722;2023-05-19T12:35:41;26.60;31.80
80176;DHT22;69501;42.124;24.722;2023-05-19T12:38:07;26.70;32.10
80176;DHT22;69501;42.124;24.722;2023-05-19T12:40:33;26.80;32.00
80176;DHT22;69501;42.124;24.722;2023-05-19T12:42:59;27.00;31.60
80176;DHT22;69501;42.124;24.722;2023-05-19T12:45:26;27.20;31.40
80176;DHT22;69501;42.124;24.722;2023-05-19T12:47:52;27.40;30.70
80176;DHT22;69501;42.124;24.722;2023-05-19T12:50:18;27.50;31.20
80176;DHT22;69501;42.124;24.722;2023-05-19T12:52:48;27.60;30.00
80176;DHT22;69501;42.124;24.722;2023-05-19T12:55:17;27.70;29.80
80176;DHT22;69501;42.124;24.722;2023-05-19T12:57:48;27.70;29.90
80176;DHT22;69501;42.124;24.722;2023-05-19T13:00:18;27.70;29.80
80176;DHT22;69501;42.124;24.722;2023-05-19T13:05:27;27.80;29.30
80176;DHT22;69501;42.124;24.722;2023-05-19T13:07:56;27.90;29.30
80176;DHT22;69501;42.124;24.722;2023-05-19T13:10:23;28.00;28.90
80176;DHT22;69501;42.124;24.722;2023-05-19T13:12:52;28.10;29.00
80176;DHT22;69501;42.124;24.722;2023-05-19T13:15:18;28.30;29.10
80176;DHT22;69501;42.124;24.722;2023-05-19T13:17:44;28.50;29.30
80176;DHT22;69501;42.124;24.722;2023-05-19T13:20:12;28.60;29.10
80176;DHT22;69501;42.124;24.722;2023-05-19T13:22:37;28.80;29.20
80176;DHT22;69501;42.124;24.722;2023-05-19T13:25:03;28.80;29.00
80176;DHT22;69501;42.124;24.722;2023-05-19T13:27:29;28.90;29.30
80176;DHT22;69501;42.124;24.722;2023-05-19T13:29:54;28.90;29.00
80176;DHT22;69501;42.124;24.722;2023-05-19T13:32:20;29.00;29.20
80176;DHT22;69501;42.124;24.722;2023-05-19T13:34:46;29.00;29.30
80176;DHT22;69501;42.124;24.722;2023-05-19T13:37:12;29.10;29.20
80176;DHT22;69501;42.124;24.722;2023-05-19T13:39:37;29.10;28.80
80176;DHT22;69501;42.124;24.722;2023-05-19T13:42:05;29.10;28.80
80176;DHT22;69501;42.124;24.722;2023-05-19T13:44:31;29.20;28.80
80176;DHT22;69501;42.124;24.722;2023-05-19T13:47:00;29.20;28.80
80176;DHT22;69501;42.124;24.722;2023-05-19T13:49:26;29.10;29.00
80176;DHT22;69501;42.124;24.722;2023-05-19T13:51:55;28.90;29.40
80176;DHT22;69501;42.124;24.722;2023-05-19T13:54:54;28.80;29.40
80176;DHT22;69501;42.124;24.722;2023-05-19T13:57:22;28.30;29.80
80176;DHT22;69501;42.124;24.722;2023-05-19T13:59:48;28.10;30.40
80176;DHT22;69501;42.124;24.722;2023-05-19T14:02:13;27.80;30.80
80176;DHT22;69501;42.124;24.722;2023-05-19T14:04:39;27.60;31.30
80176;DHT22;69501;42.124;24.722;2023-05-19T14:07:05;27.40;31.90
80176;DHT22;69501;42.124;24.722;2023-05-19T14:09:31;27.20;32.30
80176;DHT22;69501;42.124;24.722;2023-05-19T14:12:03;27.20;32.50
80176;DHT22;69501;42.124;24.722;2023-05-19T14:14:36;27.30;32.50
80176;DHT22;69501;42.124;24.722;2023-05-19T14:17:02;27.30;31.80
80176;DHT22;69501;42.124;24.722;2023-05-19T14:19:30;27.40;31.60
80176;DHT22;69501;42.124;24.722;2023-05-19T14:21:58;27.50;31.30
80176;DHT22;69501;42.124;24.722;2023-05-19T14:24:24;27.70;31.30
80176;DHT22;69501;42.124;24.722;2023-05-19T14:26:50;28.00;31.10
80176;DHT22;69501;42.124;24.722;2023-05-19T14:29:17;28.10;30.90
80176;DHT22;69501;42.124;24.722;2023-05-19T14:31:42;28.10;30.90
80176;DHT22;69501;42.124;24.722;2023-05-19T14:34:10;27.80;31.30
80176;DHT22;69501;42.124;24.722;2023-05-19T14:36:36;27.50;32.00
80176;DHT22;69501;42.124;24.722;2023-05-19T14:39:02;27.10;32.90
80176;DHT22;69501;42.124;24.722;2023-05-19T14:41:27;26.80;33.50
80176;DHT22;69501;42.124;24.722;2023-05-19T14:43:56;26.50;34.50
80176;DHT22;69501;42.124;24.722;2023-05-19T14:46:22;26.10;35.60
80176;DHT22;69501;42.124;24.722;2023-05-19T14:48:47;25.60;37.20
80176;DHT22;69501;42.124;24.722;2023-05-19T14:51:13;25.30;38.40
80176;DHT22;69501;42.124;24.722;2023-05-19T14:53:41;25.00;39.10
80176;DHT22;69501;42.124;24.722;2023-05-19T14:56:07;24.60;40.00
80176;DHT22;69501;42.124;24.722;2023-05-19T14:58:32;24.30;41.00
80176;DHT22;69501;42.124;24.722;2023-05-19T15:00:58;24.10;41.50
80176;DHT22;69501;42.124;24.722;2023-05-19T15:03:24;23.80;42.60
80176;DHT22;69501;42.124;24.722;2023-05-19T15:05:49;23.60;43.30
80176;DHT22;69501;42.124;24.722;2023-05-19T15:08:15;23.50;43.60
80176;DHT22;69501;42.124;24.722;2023-05-19T15:10:41;23.20;44.10
80176;DHT22;69501;42.124;24.722;2023-05-19T15:13:11;23.10;44.60
80176;DHT22;69501;42.124;24.722;2023-05-19T15:15:40;23.00;44.90
80176;DHT22;69501;42.124;24.722;2023-05-19T15:18:05;22.90;45.00
80176;DHT22;69501;42.124;24.722;2023-05-19T15:20:34;22.90;45.10
80176;DHT22;69501;42.124;24.722;2023-05-19T15:23:00;22.90;45.40
80176;DHT22;69501;42.124;24.722;2023-05-19T15:25:25;22.90;45.30
80176;DHT22;69501;42.124;24.722;2023-05-19T15:27:51;22.90;45.10
80176;DHT22;69501;42.124;24.722;2023-05-19T15:30:17;22.80;45.20
80176;DHT22;69501;42.124;24.722;2023-05-19T15:32:42;22.80;45.50
80176;DHT22;69501;42.124;24.722;2023-05-19T15:35:11;22.70;46.10
80176;DHT22;69501;42.124;24.722;2023-05-19T15:37:39;22.70;46.60
80176;DHT22;69501;42.124;24.722;2023-05-19T15:40:06;22.70;47.00
80176;DHT22;69501;42.124;24.722;2023-05-19T15:42:31;22.60;47.10
80176;DHT22;69501;42.124;24.722;2023-05-19T15:44:57;22.60;47.10
80176;DHT22;69501;42.124;24.722;2023-05-19T15:47:23;22.50;47.50
80176;DHT22;69501;42.124;24.722;2023-05-19T15:49:48;22.50;47.60